createdAt,value
2018-05-23T00:01:31.529Z,101654.81
2018-05-23T00:04:33.612Z,101656.18
2018-05-23T00:07:35.535Z,101654.99
2018-05-23T00:10:37.959Z,101657.83
2018-05-23T00:13:39.977Z,101657.17
2018-05-23T00:16:41.964Z,101651.60
2018-05-23T00:19:43.912Z,101649.45
2018-05-23T00:22:45.979Z,101644.83
2018-05-23T00:25:48.044Z,101650.31
2018-05-23T00:28:50.164Z,101651.08
2018-05-23T00:31:52.132Z,101650.07
2018-05-23T00:34:54.164Z,101651.11
2018-05-23T00:37:57.248Z,101660.02
2018-05-23T00:40:59.316Z,101657.45
2018-05-23T00:44:01.280Z,101658.70
2018-05-23T00:47:03.371Z,101654.20
2018-05-23T00:50:05.442Z,101658.53
2018-05-23T00:53:07.479Z,101660.33
2018-05-23T00:56:09.611Z,101657.08
2018-05-23T00:59:11.624Z,101657.68
2018-05-23T01:02:13.698Z,101655.82
2018-05-23T01:05:15.771Z,101661.60
2018-05-23T01:08:17.966Z,101659.97
2018-05-23T01:11:20.096Z,101657.10
2018-05-23T01:14:22.167Z,101664.05
2018-05-23T01:17:26.207Z,101664.94
2018-05-23T01:20:28.141Z,101674.94
2018-05-23T01:23:30.236Z,101674.58
2018-05-23T01:26:32.291Z,101674.70
2018-05-23T01:29:34.356Z,101668.64
2018-05-23T01:32:36.399Z,101668.63
2018-05-23T01:35:38.511Z,101679.07
2018-05-23T01:38:40.560Z,101675.72
2018-05-23T01:41:42.592Z,101676.04
2018-05-23T01:44:44.759Z,101679.85
2018-05-23T01:47:46.792Z,101683.76
2018-05-23T01:50:48.837Z,101682.34
2018-05-23T01:53:50.920Z,101685.80
2018-05-23T01:56:53.017Z,101689.76
2018-05-23T01:59:56.301Z,101688.18
2018-05-23T02:02:59.387Z,101694.64
2018-05-23T02:06:01.457Z,101695.17
2018-05-23T02:09:04.983Z,101695.27
2018-05-23T02:12:07.048Z,101693.28
2018-05-23T02:15:09.060Z,101694.40
2018-05-23T02:18:11.148Z,101698.53
2018-05-23T02:21:13.248Z,101703.48
2018-05-23T02:24:15.394Z,101703.64
2018-05-23T02:27:17.479Z,101705.34
2018-05-23T02:30:19.525Z,101710.21
2018-05-23T02:33:21.601Z,101713.47
2018-05-23T02:36:26.267Z,101705.80
2018-05-23T02:39:28.295Z,101716.43
2018-05-23T02:42:30.392Z,101714.27
2018-05-23T02:45:32.418Z,101710.94
2018-05-23T02:48:35.434Z,101704.12
2018-05-23T02:51:37.460Z,101708.46
2018-05-23T02:54:39.455Z,101710.76
2018-05-23T02:57:41.423Z,101709.37
2018-05-23T03:00:44.536Z,101707.47
2018-05-23T03:03:46.689Z,101711.20
2018-05-23T03:06:48.804Z,101714.11
2018-05-23T03:09:50.935Z,101716.09
2018-05-23T03:12:52.996Z,101720.44
2018-05-23T03:15:56.513Z,101722.83
2018-05-23T03:18:58.672Z,101721.48
2018-05-23T03:22:01.335Z,101728.69
2018-05-23T03:25:03.461Z,101729.59
2018-05-23T03:28:05.504Z,101729.50
2018-05-23T03:31:07.651Z,101736.84
2018-05-23T03:34:09.634Z,101737.92
2018-05-23T03:37:11.675Z,101742.73
2018-05-23T03:40:13.772Z,101748.00
2018-05-23T03:43:15.844Z,101748.00
2018-05-23T03:46:17.885Z,101754.08
2018-05-23T03:49:19.878Z,101758.39
2018-05-23T03:52:21.956Z,101763.27
2018-05-23T03:55:24.098Z,101757.28
2018-05-23T03:58:27.111Z,101758.23
2018-05-23T04:03:48.459Z,101761.23
2018-05-23T04:06:59.682Z,101759.52
2018-05-23T04:10:01.852Z,101755.48
2018-05-23T04:13:03.841Z,101756.31
2018-05-23T04:16:05.932Z,101757.50
2018-05-23T04:19:08.012Z,101756.22
2018-05-23T04:22:10.138Z,101758.65
2018-05-23T04:25:12.223Z,101765.16
2018-05-23T04:28:14.320Z,101766.59
2018-05-23T04:31:16.414Z,101775.04
2018-05-23T04:34:18.415Z,101785.40
2018-05-23T04:37:20.494Z,101792.90
2018-05-23T04:40:23.159Z,101793.66
2018-05-23T04:43:25.245Z,101792.83
2018-05-23T04:46:28.804Z,101796.02
2018-05-23T04:49:32.684Z,101798.87
2018-05-23T04:52:34.757Z,101793.13
2018-05-23T04:55:36.927Z,101797.00
2018-05-23T04:58:38.871Z,101798.22
2018-05-23T05:01:40.956Z,101798.97
2018-05-23T05:04:43.113Z,101799.24
2018-05-23T05:07:45.155Z,101800.94
2018-05-23T05:10:47.248Z,101801.82
2018-05-23T05:13:49.540Z,101793.06
2018-05-23T05:16:51.567Z,101794.98
2018-05-23T05:19:53.525Z,101805.28
2018-05-23T05:22:55.648Z,101798.39
2018-05-23T05:25:58.218Z,101802.67
2018-05-23T05:29:00.312Z,101805.05
2018-05-23T05:32:02.530Z,101809.68
2018-05-23T05:35:04.663Z,101812.24
2018-05-23T05:38:06.684Z,101815.67
2018-05-23T05:41:08.865Z,101817.99
2018-05-23T05:44:10.939Z,101823.40
2018-05-23T05:47:13.015Z,101823.76
2018-05-23T05:50:15.080Z,101828.61
2018-05-23T05:53:17.149Z,101828.59
2018-05-23T05:56:19.243Z,101835.33
2018-05-23T05:59:21.267Z,101838.25
2018-05-23T06:02:25.181Z,101845.85
2018-05-23T06:05:27.991Z,101854.17
2018-05-23T06:08:30.127Z,101865.17
2018-05-23T06:11:32.215Z,101870.44
2018-05-23T06:14:34.392Z,101876.54
2018-05-23T06:17:36.519Z,101885.48
2018-05-23T06:20:38.437Z,101885.72
2018-05-23T06:23:41.426Z,101885.11
2018-05-23T06:26:43.484Z,101890.15
2018-05-23T06:29:45.663Z,101892.29
2018-05-23T06:32:47.739Z,101888.43
2018-05-23T06:35:49.775Z,101892.70
2018-05-23T06:38:51.872Z,101891.36
2018-05-23T06:41:53.896Z,101892.29
2018-05-23T06:44:55.999Z,101899.68
2018-05-23T06:47:58.407Z,101899.81
2018-05-23T06:51:00.656Z,101909.85
2018-05-23T06:54:03.144Z,101912.84
2018-05-23T06:57:07.247Z,101911.56
2018-05-23T07:00:09.321Z,101915.33
2018-05-23T07:03:11.466Z,101920.46
2018-05-23T07:06:13.590Z,101923.37
2018-05-23T07:09:15.826Z,101931.62
2018-05-23T07:12:17.925Z,101933.33
2018-05-23T07:15:21.166Z,101938.25
2018-05-23T07:18:23.291Z,101948.12
2018-05-23T07:21:25.476Z,101951.74
2018-05-23T07:24:27.557Z,101955.61
2018-05-23T07:27:29.961Z,101958.18
2018-05-23T07:30:32.206Z,101956.75
2018-05-23T07:33:34.302Z,101953.79
2018-05-23T07:36:36.371Z,101955.27
2018-05-23T07:39:38.668Z,101960.62
2018-05-23T07:42:40.784Z,101958.54
2018-05-23T07:45:50.614Z,101959.77
2018-05-23T07:48:52.669Z,101964.66
2018-05-23T07:51:55.081Z,101964.64
2018-05-23T07:54:57.406Z,101968.36
2018-05-23T07:57:59.474Z,101972.58
2018-05-23T08:01:01.589Z,101984.84
2018-05-23T08:04:03.887Z,101995.22
2018-05-23T08:07:06.087Z,101996.66
2018-05-23T08:10:08.280Z,101992.29
2018-05-23T08:13:10.378Z,101985.74
2018-05-23T08:16:12.709Z,101979.12
2018-05-23T08:19:14.994Z,101979.72
2018-05-23T08:22:17.061Z,101983.87
2018-05-23T08:25:19.150Z,101979.37
2018-05-23T08:28:21.354Z,101966.67
2018-05-23T08:31:23.527Z,101975.93
2018-05-23T08:34:27.679Z,101979.36
2018-05-23T08:37:29.926Z,101981.59
2018-05-23T08:40:31.999Z,101989.81
2018-05-23T08:43:33.991Z,101997.17
2018-05-23T08:46:36.078Z,101994.64
2018-05-23T08:49:38.055Z,102002.35
2018-05-23T08:52:45.614Z,102001.06
2018-05-23T08:55:47.670Z,101998.43
2018-05-23T08:58:49.732Z,102002.71
2018-05-23T09:01:51.827Z,102004.81
2018-05-23T09:04:55.380Z,102004.12
2018-05-23T09:07:57.296Z,102001.10
2018-05-23T09:10:59.371Z,102000.43
2018-05-23T09:14:01.404Z,101997.25
2018-05-23T09:17:07.290Z,102001.98
2018-05-23T09:20:09.325Z,102002.03
2018-05-23T09:23:11.417Z,102006.20
2018-05-23T09:26:13.613Z,101999.12
2018-05-23T09:29:15.727Z,102005.11
2018-05-23T09:32:17.903Z,102008.05
2018-05-23T09:35:19.884Z,102006.66
2018-05-23T09:38:21.940Z,102011.40
2018-05-23T09:41:24.036Z,102012.06
2018-05-23T09:44:27.044Z,102011.95
2018-05-23T09:47:29.056Z,102012.91
2018-05-23T09:50:32.202Z,102012.94
2018-05-23T09:57:01.955Z,102012.53
2018-05-23T10:00:04.125Z,102011.34
2018-05-23T10:03:06.300Z,102012.60
2018-05-23T10:06:08.461Z,102015.69
2018-05-23T10:09:10.532Z,102012.40
2018-05-23T10:12:12.724Z,102012.54
2018-05-23T10:15:14.884Z,102011.16
2018-05-23T10:18:16.990Z,102008.70
2018-05-23T10:21:19.136Z,102005.66
2018-05-23T10:24:21.344Z,101998.13
2018-05-23T10:27:23.429Z,102000.22
2018-05-23T10:30:26.709Z,102005.07
2018-05-23T10:33:28.855Z,102003.47
2018-05-23T10:36:30.867Z,102000.24
2018-05-23T10:39:33.161Z,101996.58
2018-05-23T10:42:35.350Z,101996.37
2018-05-23T10:45:37.414Z,101998.56
2018-05-23T10:48:39.777Z,102000.80
2018-05-23T10:51:41.821Z,101997.60
2018-05-23T10:54:43.840Z,102001.07
2018-05-23T10:57:46.026Z,101995.65
2018-05-23T11:00:48.172Z,101996.31
2018-05-23T11:03:50.303Z,101998.09
2018-05-23T11:06:52.421Z,101996.23
2018-05-23T11:09:54.452Z,101997.21
2018-05-23T11:12:56.626Z,101988.93
2018-05-23T11:15:58.788Z,101987.13
2018-05-23T11:19:00.952Z,101988.11
2018-05-23T11:22:03.069Z,101992.22
2018-05-23T11:25:05.301Z,101990.58
2018-05-23T11:28:07.429Z,101993.52
2018-05-23T11:31:09.661Z,101992.25
2018-05-23T11:34:11.784Z,101993.46
2018-05-23T11:37:13.899Z,101979.22
2018-05-23T11:40:15.947Z,101977.94
2018-05-23T11:43:18.225Z,101982.30
2018-05-23T11:46:20.304Z,101980.37
2018-05-23T11:49:22.368Z,101980.00
2018-05-23T11:52:24.625Z,101975.43
2018-05-23T11:55:26.713Z,101971.64
2018-05-23T11:58:29.367Z,101963.98
2018-05-23T12:01:31.454Z,101959.47
2018-05-23T12:04:33.533Z,101955.02
2018-05-23T12:07:35.547Z,101947.17
2018-05-23T12:10:37.726Z,101936.97
2018-05-23T12:13:39.844Z,101936.65
2018-05-23T12:16:41.899Z,101936.92
2018-05-23T12:19:44.217Z,101935.31
2018-05-23T12:22:46.292Z,101929.19
2018-05-23T12:25:48.252Z,101930.74
2018-05-23T12:28:50.391Z,101919.98
2018-05-23T12:31:52.449Z,101916.24
2018-05-23T12:34:56.455Z,101915.61
2018-05-23T12:37:58.588Z,101914.30
2018-05-23T12:41:00.702Z,101911.60
2018-05-23T12:44:03.804Z,101916.47
2018-05-23T12:47:06.012Z,101917.71
2018-05-23T12:50:08.025Z,101917.43
2018-05-23T12:53:11.108Z,101909.33
2018-05-23T12:56:13.183Z,101900.11
2018-05-23T12:59:15.288Z,101899.50
2018-05-23T13:02:17.405Z,101902.45
2018-05-23T13:05:19.499Z,101896.56
2018-05-23T13:08:21.465Z,101899.76
2018-05-23T13:11:23.513Z,101893.18
2018-05-23T13:14:25.619Z,101889.47
2018-05-23T13:17:27.960Z,101877.60
2018-05-23T13:20:30.016Z,101884.69
2018-05-23T13:23:32.784Z,101887.27
2018-05-23T13:26:34.799Z,101886.88
2018-05-23T13:29:36.969Z,101876.26
2018-05-23T13:32:39.018Z,101867.64
2018-05-23T13:35:41.075Z,101869.57
2018-05-23T13:38:44.233Z,101862.10
2018-05-23T13:41:46.357Z,101861.77
2018-05-23T13:44:48.420Z,101860.40
2018-05-23T13:47:50.505Z,101854.04
2018-05-23T13:50:52.603Z,101851.36
2018-05-23T13:53:56.807Z,101845.04
2018-05-23T13:56:58.875Z,101845.48
2018-05-23T14:00:01.042Z,101842.97
2018-05-23T14:03:03.101Z,101843.59
2018-05-23T14:06:05.174Z,101844.00
2018-05-23T14:09:07.459Z,101838.45
2018-05-23T14:12:09.508Z,101834.95
2018-05-23T14:15:11.564Z,101832.20
2018-05-23T14:18:13.643Z,101826.47
2018-05-23T14:21:15.751Z,101822.88
2018-05-23T14:24:17.898Z,101816.13
2018-05-23T14:27:20.046Z,101811.09
2018-05-23T14:30:23.134Z,101812.76
2018-05-23T14:33:25.248Z,101815.93
2018-05-23T14:36:27.991Z,101815.21
2018-05-23T14:39:30.059Z,101817.54
2018-05-23T14:42:32.315Z,101815.05
2018-05-23T14:45:34.247Z,101806.28
2018-05-23T14:48:36.444Z,101803.44
2018-05-23T14:51:38.616Z,101801.98
2018-05-23T14:54:40.623Z,101797.97
2018-05-23T14:57:42.670Z,101799.19
2018-05-23T15:00:44.865Z,101799.41
2018-05-23T15:03:46.907Z,101795.13
2018-05-23T15:06:48.891Z,101795.05
2018-05-23T15:09:50.966Z,101795.66
2018-05-23T15:12:53.066Z,101793.50
2018-05-23T15:15:55.420Z,101790.69
2018-05-23T15:18:58.003Z,101787.34
2018-05-23T15:22:00.046Z,101788.41
2018-05-23T15:25:02.099Z,101784.03
2018-05-23T15:28:04.236Z,101786.73
2018-05-23T15:31:06.258Z,101783.05
2018-05-23T15:34:08.330Z,101788.32
2018-05-23T15:37:10.368Z,101786.88
2018-05-23T15:40:12.349Z,101784.96
2018-05-23T15:43:14.423Z,101784.66
2018-05-23T15:46:16.435Z,101782.44
2018-05-23T15:49:18.465Z,101784.40
2018-05-23T15:52:20.629Z,101782.75
2018-05-23T15:55:22.686Z,101768.91
2018-05-23T15:58:24.755Z,101760.26
2018-05-23T16:01:27.501Z,101759.88
2018-05-23T16:04:30.564Z,101762.69
2018-05-23T16:07:32.685Z,101763.10
2018-05-23T16:10:34.931Z,101760.27
2018-05-23T16:13:36.959Z,101762.10
2018-05-23T16:16:39.049Z,101762.05
2018-05-23T16:19:41.120Z,101764.21
2018-05-23T16:22:43.227Z,101764.69
2018-05-23T16:25:45.239Z,101766.34
2018-05-23T16:28:47.324Z,101767.74
2018-05-23T16:31:49.387Z,101771.78
2018-05-23T16:34:51.575Z,101778.82
2018-05-23T16:37:53.600Z,101789.81
2018-05-23T16:40:55.619Z,101792.78
2018-05-23T16:43:58.439Z,101806.03
2018-05-23T16:47:00.540Z,101807.13
2018-05-23T16:50:04.540Z,101814.29
2018-05-23T16:53:06.624Z,101803.25
2018-05-23T16:56:08.702Z,101804.01
2018-05-23T16:59:10.748Z,101800.64
2018-05-23T17:02:12.829Z,101803.65
2018-05-23T17:05:14.915Z,101805.28
2018-05-23T17:08:16.947Z,101807.87
2018-05-23T17:11:19.036Z,101813.50
2018-05-23T17:14:21.311Z,101818.44
2018-05-23T17:17:23.496Z,101824.21
2018-05-23T17:20:25.670Z,101823.48
2018-05-23T17:23:28.871Z,101825.78
2018-05-23T17:26:31.024Z,101831.33
2018-05-23T17:29:33.077Z,101829.16
2018-05-23T17:32:35.430Z,101842.33
2018-05-23T17:35:37.508Z,101853.26
2018-05-23T17:38:39.592Z,101871.38
2018-05-23T17:41:41.668Z,101888.28
2018-05-23T17:44:43.852Z,101907.45
2018-05-23T17:47:46.085Z,101919.68
2018-05-23T17:50:48.174Z,101917.57
2018-05-23T17:53:50.452Z,101913.41
2018-05-23T17:56:52.600Z,101909.03
2018-05-23T17:59:54.803Z,101898.85
2018-05-23T18:02:56.944Z,101910.26
2018-05-23T18:06:00.207Z,101910.76
2018-05-23T18:09:02.276Z,101900.76
2018-05-23T18:12:04.506Z,101899.04
2018-05-23T18:15:06.588Z,101903.35
2018-05-23T18:18:08.638Z,101908.59
2018-05-23T18:21:11.012Z,101906.38
2018-05-23T18:24:13.084Z,101906.18
2018-05-23T18:27:15.239Z,101905.50
2018-05-23T18:30:17.345Z,101911.26
2018-05-23T18:33:19.487Z,101909.60
2018-05-23T18:36:21.555Z,101917.09
2018-05-23T18:39:23.628Z,101920.64
2018-05-23T18:42:25.680Z,101928.79
2018-05-23T18:45:28.874Z,101931.39
2018-05-23T18:48:30.936Z,101942.78
2018-05-23T18:51:33.115Z,101935.00
2018-05-23T18:54:35.265Z,101942.34
2018-05-23T18:57:37.173Z,101938.50
2018-05-23T19:00:39.249Z,101937.25
2018-05-23T19:03:42.755Z,101936.89
2018-05-23T19:06:44.810Z,101937.44
2018-05-23T19:09:46.903Z,101941.05
2018-05-23T19:12:48.923Z,101942.41
2018-05-23T19:15:51.283Z,101949.38
2018-05-23T19:18:53.556Z,101953.39
2018-05-23T19:21:55.680Z,101954.89
2018-05-23T19:24:57.729Z,101951.90
2018-05-23T19:27:59.772Z,101954.42
2018-05-23T19:31:02.781Z,101964.61
2018-05-23T19:34:05.638Z,101966.21
2018-05-23T19:37:07.627Z,101972.38
2018-05-23T19:40:09.676Z,101973.98
2018-05-23T19:43:11.784Z,101976.81
2018-05-23T19:46:13.888Z,101977.16
2018-05-23T19:49:15.933Z,101973.26
2018-05-23T19:52:18.147Z,101972.51
2018-05-23T19:55:20.263Z,101974.18
2018-05-23T19:58:22.313Z,101974.55
2018-05-23T20:01:24.412Z,101975.32
2018-05-23T20:04:32.716Z,101972.52
2018-05-23T20:07:34.759Z,101977.59
2018-05-23T20:10:36.863Z,101985.17
2018-05-23T20:13:39.526Z,101986.98
2018-05-23T20:16:41.584Z,101987.46
2018-05-23T20:19:43.668Z,101991.67
2018-05-23T20:22:45.724Z,101982.50
2018-05-23T20:25:47.793Z,101986.78
2018-05-23T20:28:49.879Z,101984.59
2018-05-23T20:31:52.940Z,101983.38
2018-05-23T20:34:54.999Z,101983.00
2018-05-23T20:37:57.143Z,101985.18
2018-05-23T20:40:59.811Z,101978.42
2018-05-23T20:44:01.963Z,101976.89
2018-05-23T20:47:04.046Z,101977.06
2018-05-23T20:50:06.168Z,101982.44
2018-05-23T20:53:08.415Z,101983.57
2018-05-23T20:56:10.443Z,101975.89
2018-05-23T20:59:12.544Z,101971.58
2018-05-23T21:02:14.652Z,101966.90
2018-05-23T21:05:17.945Z,101967.77
2018-05-23T21:08:19.790Z,101976.72
2018-05-23T21:11:22.005Z,101978.32
2018-05-23T21:14:23.940Z,101990.45
2018-05-23T21:17:25.997Z,101990.32
2018-05-23T21:20:28.099Z,101989.91
2018-05-23T21:23:30.885Z,101995.09
2018-05-23T21:26:32.989Z,101999.87
2018-05-23T21:29:35.008Z,101997.48
2018-05-23T21:32:37.055Z,102003.85
2018-05-23T21:35:39.189Z,102004.53
2018-05-23T21:38:41.216Z,102008.24
2018-05-23T21:41:43.292Z,102007.20
2018-05-23T21:44:45.315Z,102003.52
2018-05-23T21:47:47.412Z,102007.72
2018-05-23T21:50:50.435Z,102011.52
2018-05-23T21:53:52.599Z,102013.69
2018-05-23T21:56:54.659Z,102019.68
2018-05-23T21:59:56.714Z,102022.50
2018-05-23T22:02:58.697Z,102022.07
2018-05-23T22:06:01.873Z,102022.69
2018-05-23T22:09:04.825Z,102018.87
2018-05-23T22:12:06.920Z,102020.34
2018-05-23T22:15:08.972Z,102021.39
2018-05-23T22:18:11.053Z,102024.74
2018-05-23T22:21:13.031Z,102026.60
2018-05-23T22:24:15.070Z,102021.33
2018-05-23T22:27:17.108Z,102012.88
2018-05-23T22:30:19.144Z,102007.58
2018-05-23T22:33:21.204Z,102003.18
2018-05-23T22:36:23.269Z,101998.30
2018-05-23T22:39:25.380Z,101999.59
2018-05-23T22:42:27.491Z,102002.17
2018-05-23T22:45:30.520Z,101998.01
2018-05-23T22:48:32.555Z,102003.37
2018-05-23T22:51:34.556Z,102001.59
2018-05-23T22:54:36.468Z,101995.65
2018-05-23T22:57:38.473Z,101997.89
2018-05-23T23:00:40.461Z,101996.87
2018-05-23T23:03:42.509Z,101995.53
2018-05-23T23:06:44.595Z,101988.41
2018-05-23T23:09:46.647Z,101990.84
2018-05-23T23:12:48.716Z,101991.47
2018-05-23T23:15:51.024Z,101989.26
2018-05-23T23:18:53.141Z,101995.10
2018-05-23T23:21:55.108Z,102000.39
2018-05-23T23:24:57.075Z,102003.14
2018-05-23T23:28:01.383Z,102007.78
2018-05-23T23:31:03.382Z,102004.22
2018-05-23T23:34:05.460Z,102005.85
2018-05-23T23:37:07.448Z,102003.82
2018-05-23T23:40:09.478Z,102005.32
2018-05-23T23:43:11.581Z,102010.34
2018-05-23T23:46:13.610Z,102008.14
2018-05-23T23:49:15.590Z,102011.56
2018-05-23T23:52:17.664Z,102008.87
2018-05-23T23:55:19.555Z,102009.60
2018-05-23T23:58:21.579Z,102005.78
